KAUH

Aurora Municipal - Al Potter Field Airport

Aurora, Nebraska, USA
METAR KAUH 251835Z AUTO 34019G23KT 10SM BKN034 BKN044 17/08 A3008 RMK AO2 T01690084
Observed Flight Rules
Sep-25 @ 18:35 UTC (29 minutes ago) Visual Flight Rules
Wind Visibility Clouds
340° at 19 knots
 Gusting to 23 knots
10 miles
  • Broken at 3,400' AGL
  • Broken at 4,400' AGL
Temperatures Readings
Current 17°C / 63°F
Dewpoint 8°C / 46°F
Humidity 56%
Altimeter 30.08" Hg
Pressure 1019 hPa
Elevation 550
METAR KAUH 251835Z AUTO 34019G23KT 10SM BKN034 BKN044 17/08 A3008 RMK AO2 T01690084
Observed Flight Rules
Sep-25 @ 18:35 UTC
(29 minutes ago)
VFR
Wind Visibility
340° at 19 knots
 Gusting to 23 knots
10 miles
Clouds
  • Broken at 3,400' AGL
  • Broken at 4,400' AGL
Temperature Dewpoint
17°C / 63°F 8°C / 46°F
Humidity Altimeter Pressure
56% 30.08" Hg 1019 hPa